Time;durP1;ratioP1;P1;durP2;ratioP2;P2;SDS_P1;SDS_P2;PMS_P1;PMS_P2;Temp;Humidity;BMP_temperature;BMP_pressure;BME280_temperature;BME280_humidity;BME280_pressure;Samples;Min_cycle;Max_cycle;Signal;HPM_P1;HPM_P2
2021/10/05 00:02:26;;;;;;;4.22;1.10;;;;;;;13.73;89.25;98670.69;4930621;29;20036;-84
2021/10/05 00:05:09;;;;;;;;;;;;;;;;;;;;;
2021/10/05 00:07:35;;;;;;;5.65;1.02;;;;;;;13.68;89.91;98665.41;4965634;28;20486;-81
2021/10/05 00:10:09;;;;;;;1.23;0.50;;;;;;;13.65;89.67;98677.03;4938561;29;20059;-85
2021/10/05 00:16:06;;;;;;;0.52;0.30;;;;;;;13.70;89.75;98712.56;4923690;28;20045;-81
2021/10/05 00:18:54;;;;;;;;;;;;;;;;;;;;;
2021/10/05 00:21:20;;;;;;;0.30;0.10;;;;;;;13.64;89.54;98719.38;4911403;29;20108;-80
2021/10/05 00:24:13;;;;;;;;;;;;;;;;;;;;;
2021/10/05 00:26:40;;;;;;;0.03;0.00;;;;;;;13.35;89.58;98690.69;4949521;28;20092;-77
2021/10/05 00:29:08;;;;;;;0.10;0.00;;;;;;;13.33;89.79;98687.44;4967451;28;20062;-76
2021/10/05 00:32:31;;;;;;;;;;;;;;;;;;;;;
2021/10/05 00:35:04;;;;;;;0.20;0.00;;;;;;;13.35;89.83;98701.69;4948728;28;20125;-75
2021/10/05 00:38:10;;;;;;;0.05;0.00;;;;;;;13.22;89.54;98692.47;4955537;28;20129;-78
2021/10/05 00:40:45;;;;;;;;;;;;;;;;;;;;;
2021/10/05 00:43:13;;;;;;;0.03;0.00;;;;;;;13.16;89.72;98709.44;4959462;28;20043;-77
2021/10/05 00:45:39;;;;;;;0.20;0.00;;;;;;;13.13;89.30;98721.88;4967305;29;20039;-76
2021/10/05 00:48:05;;;;;;;0.00;0.00;;;;;;;13.08;89.08;98733.00;4959078;28;20032;-77
2021/10/05 00:53:34;;;;;;;0.00;0.00;;;;;;;12.91;88.97;98731.09;4951421;28;20066;-78
2021/10/05 00:56:12;;;;;;;0.00;0.00;;;;;;;12.84;89.73;98726.06;4962322;28;20469;-79
2021/10/05 00:58:43;;;;;;;0.00;0.00;;;;;;;12.81;89.64;98720.44;4966293;28;20048;-78
2021/10/05 01:01:09;;;;;;;0.00;0.00;;;;;;;12.70;89.64;98720.75;4930078;29;20081;-77
2021/10/05 01:03:34;;;;;;;0.10;0.00;;;;;;;12.69;89.62;98724.63;4928837;29;20027;-78
2021/10/05 01:06:00;;;;;;;0.00;0.00;;;;;;;12.71;89.70;98733.31;4954543;28;20031;-78
2021/10/05 01:11:59;;;;;;;0.00;0.00;;;;;;;12.70;89.17;98737.22;4944806;28;20171;-75
2021/10/05 01:17:47;;;;;;;0.10;0.00;;;;;;;12.69;89.87;98773.19;5106384;23;20065;-74
2021/10/05 01:20:13;;;;;;;0.00;0.00;;;;;;;12.67;89.56;98770.75;4971538;28;20050;-75
2021/10/05 01:22:39;;;;;;;0.00;0.00;;;;;;;12.67;89.74;98765.25;4973007;28;20037;-74
2021/10/05 01:25:11;;;;;;;0.10;0.00;;;;;;;12.73;89.67;98758.50;4977547;28;20465;-74
2021/10/05 01:27:48;;;;;;;0.15;0.15;;;;;;;12.74;89.80;98749.13;4979459;28;20538;-74
2021/10/05 01:30:15;;;;;;;0.30;0.15;;;;;;;12.77;89.62;98764.16;4993416;28;20041;-74
2021/10/05 01:32:41;;;;;;;1.33;0.28;;;;;;;12.77;89.64;98753.16;4976426;28;20112;-74
2021/10/05 01:35:13;;;;;;;0.20;0.10;;;;;;;12.75;89.31;98742.53;4995551;28;20049;-74
2021/10/05 01:37:39;;;;;;;0.38;0.20;;;;;;;12.73;89.23;98738.47;4981418;28;20082;-74
2021/10/05 01:40:07;;;;;;;1.20;0.35;;;;;;;12.68;89.48;98733.97;4997871;28;20080;-74
2021/10/05 01:43:04;;;;;;;0.17;0.10;;;;;;;12.69;89.48;98735.59;4959153;28;20034;-75
2021/10/05 01:48:50;;;;;;;0.10;0.10;;;;;;;12.64;89.60;98719.28;4991903;28;19940;-76
2021/10/05 01:51:28;;;;;;;0.10;0.10;;;;;;;12.60;89.38;98710.09;4972717;28;20046;-76
2021/10/05 01:54:13;;;;;;;0.20;0.00;;;;;;;12.57;89.18;98705.22;4974953;28;20046;-75
2021/10/05 01:56:40;;;;;;;0.40;0.10;;;;;;;12.58;89.69;98709.59;4969807;28;20049;-75
2021/10/05 01:59:12;;;;;;;0.10;0.00;;;;;;;12.62;89.25;98713.31;4989030;28;20039;-75
2021/10/05 02:01:41;;;;;;;0.08;0.08;;;;;;;12.61;89.50;98706.22;4994703;28;20031;-77
2021/10/05 02:04:08;;;;;;;0.00;0.00;;;;;;;12.59;89.28;98705.75;4985426;28;20085;-75
2021/10/05 02:06:34;;;;;;;0.08;0.00;;;;;;;12.53;88.90;98693.31;4992914;28;20053;-74
2021/10/05 02:08:59;;;;;;;0.00;0.00;;;;;;;12.53;89.49;98698.81;4974218;28;20014;-75
2021/10/05 02:11:28;;;;;;;0.00;0.00;;;;;;;12.47;88.57;98692.66;4999072;28;20045;-74
2021/10/05 02:13:53;;;;;;;0.03;0.03;;;;;;;12.39;88.45;98688.75;4979520;28;20112;-75
2021/10/05 02:16:19;;;;;;;0.20;0.10;;;;;;;12.31;88.64;98686.84;5007680;28;20481;-75
2021/10/05 02:18:46;;;;;;;0.00;0.00;;;;;;;12.23;88.13;98679.41;4988858;28;20046;-74
2021/10/05 02:21:20;;;;;;;0.00;0.00;;;;;;;12.15;88.41;98674.69;4966660;28;20042;-73
2021/10/05 02:26:33;;;;;;;0.00;0.00;;;;;;;12.00;88.70;98671.31;4986982;28;20041;-74
2021/10/05 02:28:59;;;;;;;0.32;0.00;;;;;;;11.95;87.97;98690.63;4991027;28;20022;-77
2021/10/05 02:31:24;;;;;;;0.10;0.00;;;;;;;11.86;87.99;98687.81;4970954;28;20473;-78
2021/10/05 02:33:49;;;;;;;0.10;0.00;;;;;;;11.79;88.09;98681.19;4985835;28;20050;-77
2021/10/05 02:36:15;;;;;;;0.00;0.00;;;;;;;11.78;88.61;98680.34;4963812;28;20657;-77
2021/10/05 02:38:41;;;;;;;0.20;0.00;;;;;;;11.77;88.66;98675.19;4993824;28;20027;-76
2021/10/05 02:41:06;;;;;;;0.00;0.00;;;;;;;11.72;88.46;98675.34;4993554;28;20034;-77
2021/10/05 02:43:34;;;;;;;0.00;0.00;;;;;;;11.68;88.36;98681.47;4944042;28;20026;-78
2021/10/05 02:46:00;;;;;;;0.00;0.00;;;;;;;11.70;88.04;98684.69;4976694;28;20062;-77
2021/10/05 02:48:26;;;;;;;0.00;0.00;;;;;;;11.65;88.40;98673.06;4995060;28;20039;-77
2021/10/05 02:50:51;;;;;;;0.00;0.00;;;;;;;11.62;88.42;98677.28;4976495;28;20030;-76
2021/10/05 02:53:16;;;;;;;0.00;0.00;;;;;;;11.62;88.54;98676.44;4992849;28;20036;-75
2021/10/05 02:55:43;;;;;;;0.00;0.00;;;;;;;11.58;88.14;98676.28;4981484;28;20030;-76
2021/10/05 02:58:09;;;;;;;0.00;0.00;;;;;;;11.57;87.84;98682.88;4984094;28;20098;-78
2021/10/05 03:00:35;;;;;;;0.00;0.00;;;;;;;11.56;88.41;98683.19;4985737;28;20018;-77
2021/10/05 03:03:01;;;;;;;0.00;0.00;;;;;;;11.51;88.53;98675.91;4961962;28;20102;-77
2021/10/05 03:05:26;;;;;;;0.00;0.00;;;;;;;11.46;88.63;98670.56;4995229;28;20041;-77
2021/10/05 03:07:51;;;;;;;0.00;0.00;;;;;;;11.45;88.00;98667.03;4951785;28;20036;-76
2021/10/05 03:10:17;;;;;;;0.00;0.00;;;;;;;11.42;88.07;98672.31;4980254;28;20023;-78
2021/10/05 03:12:42;;;;;;;0.00;0.00;;;;;;;11.38;87.81;98666.69;4999157;28;20026;-77
2021/10/05 03:15:08;;;;;;;0.00;0.00;;;;;;;11.31;88.20;98661.63;4999139;28;20090;-77
2021/10/05 03:17:34;;;;;;;0.00;0.00;;;;;;;11.26;87.82;98659.06;4981347;28;20515;-78
2021/10/05 03:19:59;;;;;;;0.10;0.05;;;;;;;11.22;88.31;98660.00;4973372;28;20138;-77
2021/10/05 03:22:42;;;;;;;0.00;0.00;;;;;;;11.15;87.94;98652.22;4969219;28;20108;-77
2021/10/05 03:25:28;;;;;;;0.20;0.15;;;;;;;11.13;88.10;98659.94;4979647;28;20061;-78
2021/10/05 03:28:24;;;;;;;0.10;0.10;;;;;;;11.13;88.10;98665.41;4987094;28;20019;-77
2021/10/05 03:30:59;;;;;;;0.00;0.00;;;;;;;11.11;87.98;98664.91;4977296;28;20098;-77
2021/10/05 03:33:26;;;;;;;0.00;0.00;;;;;;;11.07;87.97;98672.13;4980824;28;20038;-76
2021/10/05 03:35:51;;;;;;;0.00;0.00;;;;;;;11.04;88.12;98675.47;4996552;28;20441;-77
2021/10/05 03:38:17;;;;;;;0.17;0.10;;;;;;;10.93;87.70;98670.25;4996166;28;20045;-78
2021/10/05 03:40:56;;;;;;;;;;;;;;;;;;;;;
2021/10/05 03:43:28;;;;;;;0.10;0.00;;;;;;;10.85;87.83;98665.56;4978437;28;20106;-78
2021/10/05 03:46:01;;;;;;;0.13;0.10;;;;;;;10.86;87.98;98675.34;4993866;28;20022;-77
2021/10/05 03:48:30;;;;;;;0.20;0.10;;;;;;;10.82;88.25;98674.38;4959813;28;20094;-77
2021/10/05 03:50:56;;;;;;;0.10;0.10;;;;;;;10.68;87.83;98660.75;4983062;28;20036;-77
2021/10/05 03:53:22;;;;;;;0.00;0.00;;;;;;;10.67;88.17;98674.75;4997083;28;20058;-75
2021/10/05 03:55:50;;;;;;;0.10;0.10;;;;;;;10.70;87.83;98674.13;5000551;28;20026;-76
2021/10/05 03:58:16;;;;;;;0.13;0.05;;;;;;;10.64;88.17;98676.97;4980344;28;20030;-76
2021/10/05 04:00:42;;;;;;;0.00;0.00;;;;;;;10.63;87.99;98686.28;4978055;28;20049;-76
2021/10/05 04:03:08;;;;;;;0.10;0.00;;;;;;;10.59;87.77;98679.81;4992145;28;20041;-76
2021/10/05 04:05:33;;;;;;;0.00;0.00;;;;;;;10.57;88.41;98671.13;4978465;28;20034;-76
2021/10/05 04:08:00;;;;;;;0.00;0.00;;;;;;;10.54;88.31;98671.75;4975983;28;20046;-76
2021/10/05 04:13:15;;;;;;;0.20;0.20;;;;;;;10.45;87.97;98682.59;4978966;28;20094;-75
2021/10/05 04:15:41;;;;;;;0.10;0.00;;;;;;;10.38;88.39;98667.72;4967880;28;20042;-78
2021/10/05 04:18:07;;;;;;;0.15;0.00;;;;;;;10.42;88.29;98680.47;4985237;28;20090;-77
2021/10/05 04:20:48;;;;;;;;;;;;;;;;;;;;;
2021/10/05 04:23:14;;;;;;;0.05;0.00;;;;;;;10.40;87.89;98681.91;4980913;28;20110;-78
2021/10/05 04:25:39;;;;;;;0.00;0.00;;;;;;;10.36;88.17;98669.97;4993687;28;20050;-79
2021/10/05 04:28:05;;;;;;;0.03;0.00;;;;;;;10.41;88.27;98678.88;5000664;28;20042;-78
2021/10/05 04:30:31;;;;;;;0.00;0.00;;;;;;;10.33;88.22;98670.56;4979448;28;20031;-78
2021/10/05 04:33:04;;;;;;;0.03;0.03;;;;;;;10.34;87.67;98680.38;4987770;28;20033;-79
2021/10/05 04:35:32;;;;;;;0.10;0.00;;;;;;;10.29;87.93;98671.19;4959916;28;20053;-79
2021/10/05 04:37:57;;;;;;;0.10;0.10;;;;;;;10.29;88.57;98684.84;4975452;28;20088;-82
2021/10/05 04:40:23;;;;;;;0.22;0.05;;;;;;;10.23;88.32;98677.84;4942155;28;20034;-80
2021/10/05 04:42:54;;;;;;;0.63;0.00;;;;;;;10.27;87.97;98689.78;4972728;28;20108;-79
2021/10/05 04:45:20;;;;;;;0.65;0.10;;;;;;;10.24;88.11;98687.66;4977831;28;20035;-77
2021/10/05 04:47:45;;;;;;;0.28;0.05;;;;;;;10.22;88.01;98684.44;4984702;28;20027;-78
2021/10/05 04:50:14;;;;;;;0.38;0.10;;;;;;;10.21;88.04;98685.56;4960913;28;20031;-77
2021/10/05 04:52:40;;;;;;;0.00;0.00;;;;;;;10.18;87.81;98690.81;4964688;28;20030;-77
2021/10/05 04:55:06;;;;;;;1.60;0.10;;;;;;;10.16;88.15;98688.38;4977604;28;20034;-77
2021/10/05 04:57:32;;;;;;;0.52;0.52;;;;;;;10.11;87.79;98685.78;4995663;28;20088;-77
2021/10/05 04:59:57;;;;;;;0.00;0.00;;;;;;;10.11;88.00;98702.16;4995160;28;20038;-77
2021/10/05 05:02:23;;;;;;;0.70;0.10;;;;;;;10.07;88.37;98712.06;4986605;28;20054;-76
2021/10/05 05:04:49;;;;;;;0.20;0.10;;;;;;;9.96;87.81;98701.34;4987357;28;20058;-77
2021/10/05 05:07:14;;;;;;;0.90;0.10;;;;;;;10.00;88.15;98711.66;4995519;28;20026;-78
2021/10/05 05:09:40;;;;;;;0.20;0.10;;;;;;;9.94;88.36;98709.06;4991278;28;20050;-77
2021/10/05 05:12:06;;;;;;;0.00;0.00;;;;;;;9.94;88.15;98717.25;4989829;28;20108;-78
2021/10/05 05:14:35;;;;;;;0.20;0.10;;;;;;;9.92;87.97;98722.19;4977757;28;20136;-78
2021/10/05 05:17:00;;;;;;;0.25;0.10;;;;;;;9.89;88.25;98722.78;4971881;28;20046;-77
2021/10/05 05:19:28;;;;;;;0.20;0.00;;;;;;;9.84;88.24;98722.91;4968305;28;20030;-78
2021/10/05 05:22:01;;;;;;;0.00;0.00;;;;;;;9.83;88.01;98728.63;4967890;28;20106;-76
2021/10/05 05:24:27;;;;;;;0.00;0.00;;;;;;;9.77;88.00;98719.75;4993088;28;20174;-77
2021/10/05 05:26:54;;;;;;;0.77;0.63;;;;;;;9.76;88.08;98724.41;4967625;28;20053;-75
2021/10/05 05:29:19;;;;;;;0.00;0.00;;;;;;;9.65;88.41;98716.69;4978807;28;20022;-77
2021/10/05 05:31:45;;;;;;;0.08;0.00;;;;;;;9.65;87.94;98723.00;4987559;28;20157;-78
2021/10/05 05:34:11;;;;;;;0.10;0.00;;;;;;;9.71;87.96;98740.06;4973808;28;20047;-79
2021/10/05 05:36:37;;;;;;;0.00;0.00;;;;;;;9.65;87.99;98733.06;4970615;28;20030;-80
2021/10/05 05:39:05;;;;;;;0.68;0.10;;;;;;;9.64;87.95;98734.19;4981833;28;20113;-81
2021/10/05 05:41:31;;;;;;;1.80;0.63;;;;;;;9.53;88.24;98718.00;4969887;28;20046;-80
2021/10/05 05:43:56;;;;;;;0.00;0.00;;;;;;;9.52;88.12;98715.56;4943411;28;20035;-82
2021/10/05 05:46:24;;;;;;;0.00;0.00;;;;;;;9.55;88.61;98729.44;4961090;28;20130;-80
2021/10/05 05:48:49;;;;;;;0.55;0.10;;;;;;;9.52;87.93;98729.22;4941050;28;20019;-80
2021/10/05 05:51:15;;;;;;;0.13;0.03;;;;;;;9.44;88.15;98723.34;4972977;28;20495;-79
2021/10/05 05:53:40;;;;;;;0.10;0.10;;;;;;;9.53;88.02;98742.56;4956723;28;20034;-80
2021/10/05 05:56:08;;;;;;;0.20;0.00;;;;;;;9.54;88.16;98738.72;4977712;28;20129;-81
2021/10/05 05:58:34;;;;;;;0.17;0.10;;;;;;;9.47;88.02;98732.84;4976956;28;20592;-82
2021/10/05 06:00:59;;;;;;;0.20;0.08;;;;;;;9.49;88.46;98730.66;4940771;28;20069;-77
2021/10/05 06:03:25;;;;;;;0.55;0.00;;;;;;;9.51;88.23;98738.53;4960452;28;20432;-75
2021/10/05 06:09:39;;;;;;;0.55;0.10;;;;;;;9.33;88.16;98726.53;4886781;29;20047;-78
2021/10/05 06:12:09;;;;;;;0.00;0.00;;;;;;;9.47;88.21;98754.66;4919415;29;20028;-77
2021/10/05 06:14:36;;;;;;;0.00;0.00;;;;;;;9.45;88.04;98765.09;4955753;28;20034;-77
2021/10/05 06:17:10;;;;;;;0.10;0.00;;;;;;;9.42;87.87;98765.69;4975008;28;20030;-76
2021/10/05 06:19:36;;;;;;;0.52;0.52;;;;;;;9.42;88.55;98773.88;4989961;28;20030;-77
2021/10/05 06:22:02;;;;;;;0.05;0.00;;;;;;;9.39;87.97;98769.81;4992200;28;20532;-77
2021/10/05 06:24:27;;;;;;;0.00;0.00;;;;;;;9.43;88.74;98780.94;4978561;28;20038;-77
2021/10/05 06:26:53;;;;;;;0.63;0.10;;;;;;;9.50;88.45;98784.09;4993184;28;20015;-79
2021/10/05 06:29:18;;;;;;;0.20;0.10;;;;;;;9.59;88.72;98793.22;4964764;28;20038;-79
2021/10/05 06:31:44;;;;;;;0.10;0.00;;;;;;;9.69;89.26;98788.69;4987471;28;20050;-78
2021/10/05 06:34:09;;;;;;;0.05;0.00;;;;;;;9.75;88.83;98790.22;4973437;28;20039;-77
2021/10/05 06:36:37;;;;;;;0.00;0.00;;;;;;;9.75;89.00;98792.94;4978291;28;20037;-77
2021/10/05 06:42:25;;;;;;;0.28;0.10;;;;;;;9.81;89.11;98812.78;5000203;28;20101;-78
2021/10/05 06:44:51;;;;;;;0.03;0.00;;;;;;;9.63;88.37;98790.69;4969583;28;20030;-78
2021/10/05 06:47:19;;;;;;;0.30;0.00;;;;;;;9.70;88.90;98784.84;4976595;28;20045;-79
2021/10/05 06:49:45;;;;;;;0.03;0.03;;;;;;;9.71;88.59;98798.19;4968909;28;20021;-79
2021/10/05 06:52:28;;;;;;;0.30;0.30;;;;;;;9.71;88.94;98800.94;4968172;28;20022;-80
2021/10/05 06:58:40;;;;;;;0.10;0.10;;;;;;;9.90;89.05;98827.34;4943061;28;20158;-80
2021/10/05 07:02:13;;;;;;;;;;;;;;;;;;;;;
2021/10/05 07:05:18;;;;;;;0.10;0.10;;;;;;;10.08;88.75;98842.06;4838709;29;20147;-81
2021/10/05 07:11:05;;;;;;;3.20;0.22;;;;;;;9.97;88.48;98835.94;4833686;29;20106;-77
2021/10/05 07:13:30;;;;;;;0.30;0.30;;;;;;;9.93;88.78;98819.38;4834831;29;20498;-78
2021/10/05 07:15:56;;;;;;;0.20;0.20;;;;;;;10.06;88.42;98836.06;4917712;29;20530;-76
2021/10/05 07:18:32;;;;;;;0.77;0.30;;;;;;;10.07;88.39;98832.22;4939075;29;20043;-76
2021/10/05 07:21:03;;;;;;;0.20;0.20;;;;;;;10.05;88.28;98829.00;4931234;29;20198;-75
2021/10/05 07:23:31;;;;;;;0.20;0.20;;;;;;;10.02;88.64;98832.34;4925120;29;20055;-76
2021/10/05 07:26:50;;;;;;;0.20;0.13;;;;;;;10.12;88.49;98840.34;4935589;29;20031;-77
2021/10/05 07:30:02;;;;;;;0.30;0.30;;;;;;;10.17;88.41;98848.44;4552806;26;20091;-77
2021/10/05 07:36:42;;;;;;;;;;;;;;;10.75;88.39;98863.47;4877479;29;20097;-75
2021/10/05 07:39:08;;;;;;;0.63;0.63;;;;;;;10.99;87.45;98862.41;4920292;29;20381;-74
2021/10/05 07:41:34;;;;;;;0.60;0.60;;;;;;;11.23;86.40;98862.16;4945116;29;20055;-75
2021/10/05 07:43:59;;;;;;;0.30;0.30;;;;;;;11.69;86.20;98868.47;4949722;29;20058;-74
2021/10/05 07:46:25;;;;;;;0.65;0.35;;;;;;;12.13;85.39;98864.09;4930542;29;20135;-75
2021/10/05 07:50:02;;;;;;;0.38;0.13;;;;;;;12.47;85.76;98853.59;4913386;29;20063;-76
2021/10/05 07:55:04;;;;;;;0.20;0.00;;;;;;;13.02;84.11;98864.06;4964722;23;20051;-75
2021/10/05 07:57:30;;;;;;;0.10;0.10;;;;;;;13.29;83.76;98862.16;4953592;28;20050;-75
2021/10/05 07:59:55;;;;;;;0.10;0.10;;;;;;;13.42;82.54;98863.97;4955761;28;20042;-75
2021/10/05 08:02:20;;;;;;;1.08;0.22;;;;;;;13.66;82.35;98870.91;4971054;28;20082;-75
2021/10/05 08:04:46;;;;;;;0.00;0.00;;;;;;;13.81;81.34;98866.03;4947876;28;20455;-75
2021/10/05 08:07:11;;;;;;;0.20;0.10;;;;;;;14.03;80.80;98865.84;4952066;28;20030;-75
2021/10/05 08:09:37;;;;;;;0.20;0.20;;;;;;;14.26;80.45;98876.59;4962958;28;20027;-74
2021/10/05 08:12:03;;;;;;;0.10;0.10;;;;;;;14.24;79.49;98867.91;4972256;28;20038;-74
2021/10/05 08:14:28;;;;;;;0.20;0.20;;;;;;;14.08;79.44;98871.16;4968373;28;20023;-74
2021/10/05 08:16:54;;;;;;;0.10;0.10;;;;;;;13.71;79.59;98879.00;4963224;28;20027;-75
2021/10/05 08:19:21;;;;;;;0.47;0.20;;;;;;;13.43;80.56;98890.31;4967213;28;20429;-74
2021/10/05 08:21:46;;;;;;;0.35;0.10;;;;;;;13.24;81.34;98881.53;4952259;28;20027;-75
2021/10/05 08:24:12;;;;;;;0.20;0.20;;;;;;;13.29;82.75;98878.63;4958890;28;20318;-76
2021/10/05 08:26:38;;;;;;;0.20;0.20;;;;;;;13.24;82.18;98887.84;4970405;28;20031;-75
2021/10/05 08:29:04;;;;;;;0.80;0.20;;;;;;;13.01;82.33;98883.59;4965478;28;20027;-75
2021/10/05 08:31:30;;;;;;;0.20;0.10;;;;;;;12.90;83.25;98888.59;4971811;28;20087;-73
2021/10/05 08:33:55;;;;;;;0.68;0.20;;;;;;;12.85;82.96;98905.19;4972386;28;20027;-78
2021/10/05 08:36:21;;;;;;;1.67;0.77;;;;;;;12.76;84.08;98899.66;4964911;28;20085;-77
2021/10/05 08:38:47;;;;;;;0.75;0.20;;;;;;;13.02;83.84;98912.66;4954587;28;20058;-77
2021/10/05 08:41:13;;;;;;;2.65;0.30;;;;;;;13.05;83.73;98918.31;4968717;28;20032;-75
2021/10/05 08:43:41;;;;;;;0.75;0.30;;;;;;;13.14;83.03;98917.53;4949421;28;20028;-74
2021/10/05 08:46:07;;;;;;;1.15;0.30;;;;;;;13.09;82.98;98916.53;4935740;28;20046;-75
2021/10/05 08:48:36;;;;;;;1.63;0.40;;;;;;;12.95;83.44;98918.59;4955457;28;20023;-75
2021/10/05 08:51:04;;;;;;;0.88;0.22;;;;;;;12.71;83.51;98914.31;4972830;28;20031;-75
2021/10/05 08:53:33;;;;;;;1.65;0.55;;;;;;;12.60;83.85;98924.00;4974724;28;20062;-75
2021/10/05 08:55:58;;;;;;;1.50;0.70;;;;;;;12.54;84.30;98917.00;4956880;28;20071;-75
2021/10/05 08:58:24;;;;;;;0.80;0.50;;;;;;;12.77;84.86;98916.94;4956930;28;20059;-76
2021/10/05 09:00:53;;;;;;;0.60;0.30;;;;;;;13.13;83.99;98907.66;4954155;28;20038;-76
2021/10/05 09:03:26;;;;;;;2.10;0.55;;;;;;;13.63;83.02;98921.00;4955744;28;20035;-75
2021/10/05 09:05:52;;;;;;;1.02;0.60;;;;;;;13.71;81.36;98917.44;4956660;28;20035;-75
2021/10/05 09:08:23;;;;;;;2.13;0.35;;;;;;;13.95;80.60;98927.13;4967716;28;20023;-74
2021/10/05 09:10:52;;;;;;;1.73;0.55;;;;;;;14.06;80.40;98930.34;4977309;28;20457;-74
2021/10/05 09:13:54;;;;;;;5.20;0.40;;;;;;;14.29;79.52;98936.44;4964361;28;20027;-76
2021/10/05 09:16:23;;;;;;;2.25;0.25;;;;;;;13.91;79.33;98920.66;4944403;28;20042;-75
2021/10/05 09:19:11;;;;;;;1.60;0.30;;;;;;;13.82;79.93;98944.59;4969774;28;20041;-75
2021/10/05 09:21:50;;;;;;;1.02;0.32;;;;;;;14.17;79.79;98939.06;4974029;28;20022;-73
2021/10/05 09:24:32;;;;;;;3.25;0.40;;;;;;;14.08;79.04;98941.81;4952213;28;20027;-71
2021/10/05 09:27:04;;;;;;;2.40;0.50;;;;;;;13.76;79.68;98953.00;4952753;28;20059;-74
2021/10/05 09:29:35;;;;;;;1.55;0.57;;;;;;;13.47;79.77;98955.56;4944671;28;20019;-74
2021/10/05 09:32:07;;;;;;;1.98;0.50;;;;;;;13.08;79.89;98956.09;4963850;28;20076;-74
2021/10/05 09:34:55;;;;;;;1.48;0.68;;;;;;;13.02;80.77;98967.53;4945353;28;20023;-73
2021/10/05 09:37:24;;;;;;;0.63;0.30;;;;;;;12.92;81.69;98968.63;4942935;28;20362;-73
2021/10/05 09:39:54;;;;;;;2.28;0.50;;;;;;;12.90;82.34;98966.19;4970482;28;20496;-76
2021/10/05 09:42:52;;;;;;;2.13;0.40;;;;;;;12.98;81.93;98972.84;4957704;28;20026;-76
2021/10/05 09:45:24;;;;;;;4.10;0.60;;;;;;;13.09;81.41;98978.84;4920622;28;20034;-75
2021/10/05 09:47:54;;;;;;;0.65;0.32;;;;;;;13.39;81.52;98971.69;4788346;29;2612017;-74
2021/10/05 09:50:22;;;;;;;1.85;0.40;;;;;;;14.34;79.08;98994.03;4938212;29;20110;-74
2021/10/05 09:52:50;;;;;;;2.50;0.50;;;;;;;15.21;75.99;98975.63;4939131;29;20048;-75
2021/10/05 09:55:18;;;;;;;3.17;0.63;;;;;;;15.99;74.99;98996.31;4931365;29;20135;-75
2021/10/05 09:57:44;;;;;;;2.72;0.40;;;;;;;16.70;70.51;98994.53;4915093;29;20389;-72
2021/10/05 10:00:12;;;;;;;4.70;0.85;;;;;;;16.42;70.15;98999.84;4920203;29;20047;-76
2021/10/05 10:02:39;;;;;;;1.42;0.63;;;;;;;16.68;70.05;99010.63;4932242;29;20055;-76
2021/10/05 10:05:16;;;;;;;6.90;0.43;;;;;;;16.36;69.74;99013.06;4934638;29;20058;-76
2021/10/05 10:07:44;;;;;;;1.13;0.50;;;;;;;16.18;69.79;99048.25;4931936;29;20028;-77
2021/10/05 10:10:12;;;;;;;0.60;0.20;;;;;;;16.68;68.59;99027.97;4936744;29;20066;-76
2021/10/05 10:12:41;;;;;;;0.60;0.20;;;;;;;16.86;65.76;99031.34;4931979;29;20023;-75
2021/10/05 10:15:09;;;;;;;0.77;0.30;;;;;;;17.14;67.26;99039.00;4930649;29;20054;-76
2021/10/05 10:17:34;;;;;;;1.60;0.20;;;;;;;17.37;61.11;99044.09;4945346;29;20019;-76
2021/10/05 10:20:00;;;;;;;2.25;0.20;;;;;;;17.93;62.05;99044.31;4938390;29;20057;-75
2021/10/05 10:22:26;;;;;;;3.22;0.10;;;;;;;18.47;59.83;99062.47;4913725;29;20116;-77
2021/10/05 10:24:54;;;;;;;3.17;0.40;;;;;;;18.90;54.66;99076.72;4914195;29;20048;-78
2021/10/05 10:27:21;;;;;;;0.52;0.20;;;;;;;18.45;56.57;99069.50;4924098;29;20167;-76
2021/10/05 10:29:47;;;;;;;0.20;0.13;;;;;;;18.76;56.32;99067.97;4913342;29;20020;-76
2021/10/05 10:32:17;;;;;;;0.40;0.20;;;;;;;19.67;56.17;99066.34;4906462;29;20045;-75
2021/10/05 10:34:44;;;;;;;0.10;0.10;;;;;;;20.16;50.31;99081.72;4941136;29;20031;-76
2021/10/05 10:37:15;;;;;;;0.40;0.10;;;;;;;19.55;50.47;99092.19;4915850;29;20107;-76
2021/10/05 10:39:41;;;;;;;0.08;0.00;;;;;;;19.02;51.22;99101.53;4928473;29;20111;-76
2021/10/05 10:42:07;;;;;;;0.22;0.10;;;;;;;18.20;52.94;99100.03;4919386;29;20035;-78
2021/10/05 10:44:37;;;;;;;0.35;0.10;;;;;;;17.58;55.68;99102.84;4929655;29;20064;-77
2021/10/05 10:47:09;;;;;;;1.17;0.10;;;;;;;17.86;54.87;99095.78;4938098;29;20031;-76
2021/10/05 10:49:35;;;;;;;0.00;0.00;;;;;;;18.53;55.03;99104.53;4938899;29;20036;-77
2021/10/05 10:52:00;;;;;;;0.00;0.00;;;;;;;19.38;50.68;99131.34;4931101;29;20392;-75
2021/10/05 10:54:26;;;;;;;0.40;0.10;;;;;;;19.95;48.83;99110.59;4936659;29;20049;-75
2021/10/05 10:56:59;;;;;;;0.35;0.30;;;;;;;20.62;49.46;99120.78;4934831;29;20387;-75
2021/10/05 10:59:26;;;;;;;0.20;0.10;;;;;;;21.41;47.12;99132.59;4937376;29;20059;-75
2021/10/05 11:01:52;;;;;;;1.10;0.10;;;;;;;21.93;43.26;99135.84;4936633;29;20066;-75
2021/10/05 11:04:28;;;;;;;1.48;0.10;;;;;;;21.60;43.32;99121.44;4918154;29;20119;-75
2021/10/05 11:06:53;;;;;;;;;;;;;;;21.97;44.18;99159.75;4924510;29;20090;-75
2021/10/05 11:09:20;;;;;;;0.15;0.08;;;;;;;22.17;42.62;99148.53;4935193;29;19914;-74
2021/10/05 11:11:58;;;;;;;1.13;0.20;;;;;;;22.60;42.35;99162.28;4919413;29;20414;-75
2021/10/05 11:14:31;;;;;;;0.40;0.10;;;;;;;23.12;41.74;99145.81;4912505;29;20430;-74
2021/10/05 11:17:04;;;;;;;1.60;0.20;;;;;;;23.55;40.00;99156.56;4934731;29;20052;-73
2021/10/05 11:19:35;;;;;;;0.35;0.17;;;;;;;23.56;37.29;99177.72;4916193;29;20066;-74
2021/10/05 11:22:03;;;;;;;0.30;0.20;;;;;;;23.69;37.56;99165.06;4925530;29;20086;-75
2021/10/05 11:24:40;;;;;;;1.65;0.22;;;;;;;23.12;38.02;99171.69;4928755;29;20027;-75
2021/10/05 11:27:14;;;;;;;1.20;0.20;;;;;;;22.58;37.33;99179.38;4906715;29;20066;-75
2021/10/05 11:29:39;;;;;;;0.77;0.30;;;;;;;22.55;38.75;99170.97;4923832;29;20390;-76
2021/10/05 11:32:08;;;;;;;1.83;0.28;;;;;;;22.90;37.66;99167.03;4915077;29;20039;-75
2021/10/05 11:34:37;;;;;;;2.60;0.68;;;;;;;22.46;38.80;99202.69;4924943;29;20058;-73
2021/10/05 11:37:05;;;;;;;0.88;0.30;;;;;;;21.87;39.92;99181.88;4921353;29;20074;-74
2021/10/05 11:39:31;;;;;;;1.52;0.45;;;;;;;21.48;39.53;99177.22;4916655;29;20046;-75
2021/10/05 11:41:59;;;;;;;3.58;0.60;;;;;;;21.44;41.39;99191.03;4930766;29;20039;-75
2021/10/05 11:44:28;;;;;;;0.98;0.32;;;;;;;22.06;39.35;99201.25;4925166;29;20051;-74
2021/10/05 11:47:05;;;;;;;4.20;0.82;;;;;;;22.30;38.44;99193.66;4935433;29;20086;-74
2021/10/05 11:49:49;;;;;;;2.90;0.50;;;;;;;22.57;37.62;99197.25;4908049;29;20040;-74
2021/10/05 11:52:22;;;;;;;1.52;0.60;;;;;;;22.94;37.45;99204.09;4937365;29;20027;-75
2021/10/05 11:54:49;;;;;;;1.52;0.50;;;;;;;23.48;37.52;99210.28;4937831;29;20036;-73
2021/10/05 11:57:22;;;;;;;6.75;0.45;;;;;;;23.84;36.81;99232.97;4932688;29;20035;-74
2021/10/05 12:00:00;;;;;;;3.10;0.40;;;;;;;24.23;34.72;99230.53;4938285;29;20036;-76
2021/10/05 12:02:26;;;;;;;1.65;0.68;;;;;;;24.83;35.04;99216.56;4932189;29;20020;-74
2021/10/05 12:04:56;;;;;;;2.42;0.38;;;;;;;25.50;33.54;99223.59;4931140;29;20035;-76
2021/10/05 12:07:45;;;;;;;2.15;0.98;;;;;;;25.44;32.65;99217.56;4942212;29;20031;-77
2021/10/05 12:20:58;;;;;;;7.55;0.77;;;;;;;23.22;35.38;99237.13;4825564;29;20076;-78
2021/10/05 12:24:04;;;;;;;1.10;0.60;;;;;;;21.36;41.15;99264.41;4825588;29;20131;-73
2021/10/05 12:26:29;;;;;;;4.97;0.57;;;;;;;21.65;41.51;99264.16;4829239;29;20038;-74
2021/10/05 12:29:00;;;;;;;0.95;0.40;;;;;;;22.23;40.62;99254.81;4832962;29;20030;-74
2021/10/05 12:31:28;;;;;;;2.20;0.60;;;;;;;22.94;41.03;99260.66;4921645;29;20040;-74
2021/10/05 12:33:54;;;;;;;1.50;0.60;;;;;;;23.50;38.26;99267.31;4929925;29;20499;-73
2021/10/05 12:36:21;;;;;;;0.88;0.55;;;;;;;23.90;38.64;99278.91;4923627;29;20028;-75
2021/10/05 12:38:46;;;;;;;4.70;0.70;;;;;;;24.37;37.49;99282.09;4906462;29;20020;-74
2021/10/05 12:41:12;;;;;;;2.65;0.60;;;;;;;24.02;36.63;99283.41;4921292;29;20042;-75
2021/10/05 12:43:41;;;;;;;0.50;0.40;;;;;;;24.34;37.70;99294.03;4923548;29;20473;-74
2021/10/05 12:46:15;;;;;;;3.05;0.57;;;;;;;24.42;35.37;99294.91;4940369;29;20031;-74
2021/10/05 12:48:44;;;;;;;1.33;0.50;;;;;;;24.01;36.11;99304.16;4935471;29;20411;-75
2021/10/05 12:51:10;;;;;;;0.50;0.30;;;;;;;24.33;35.24;99309.22;4934914;29;20542;-74
2021/10/05 12:53:36;;;;;;;4.57;0.70;;;;;;;24.89;34.27;99302.44;4927911;29;20027;-77
2021/10/05 12:56:05;;;;;;;2.67;0.52;;;;;;;24.96;32.45;99300.91;4914394;29;20052;-77